NCAR-RAP Real-Time Weather Data

Output produced by METARs form (23 February 2020  01:03 UTC)
found at http://weather.rap.ucar.edu/surface/
 
KBOS 230054Z 29007KT 10SM CLR 06/M09 A3014 RMK AO2 SLP206 T00561089
KBOS 222354Z 30009KT 10SM CLR 07/M09 A3013 RMK AO2 SLP202 T00671089 10094 20067 53018
KBOS 222254Z 27010G19KT 10SM FEW250 07/M09 A3010 RMK AO2 SLP193 T00721094
KBOS 222154Z 28012KT 10SM FEW250 08/M10 A3008 RMK AO2 SLP186 T00831100
KBOS 222054Z 26012KT 10SM FEW250 09/M11 A3008 RMK AO2 SLP184 T00891106 55006
KBOS 221954Z 27012KT 10SM FEW250 09/M11 A3007 RMK AO2 SLP182 T00891106
KBOS 221854Z 28011G19KT 10SM FEW250 08/M11 A3008 RMK AO2 SLP184 T00831111
KBOS 221754Z 27009G18KT 10SM FEW250 07/M12 A3009 RMK AO2 SLP189 T00721117 10078 21011 58028
KBOS 221654Z 25012KT 10SM FEW250 07/M12 A3013 RMK AO2 SLP201 T00721122
KBOS 221554Z 27010G18KT 10SM FEW250 06/M12 A3016 RMK AO2 SLP211 T00561122
KBOS 221454Z 26011KT 10SM FEW250 04/M13 A3018 RMK AO2 SLP217 T00391133 58005
KBOS 221354Z 26012G19KT 10SM FEW250 03/M14 A3020 RMK AO2 SLP226 T00281144
KBOS 221254Z 23011KT 10SM SCT250 01/M14 A3020 RMK AO2 SLP226 T00061139
KBOS 221154Z 21009KT 10SM SCT250 M01/M14 A3019 RMK AO2 SLP223 T10111139 10000 21017 53005
KBOS 221054Z 23011KT 10SM FEW250 M01/M14 A3018 RMK AO2 SLP219 T10111144
KBOS 220954Z 23011KT 10SM SCT250 M01/M14 A3018 RMK AO2 SLP217 T10111144
KBOS 220854Z 24010KT 10SM CLR M01/M15 A3017 RMK AO2 SLP217 T10061150 56020
KBOS 220754Z 23011KT 10SM CLR M01/M15 A3017 RMK AO2 SLP217 T10061150
KBOS 220654Z 22010KT 10SM CLR M01/M15 A3021 RMK AO2 SLP229 T10111150
KBOS 220554Z 23011KT 10SM CLR M01/M16 A3023 RMK AO2 SLP237 T10111156 10000 21017 56024
KBOS 220454Z 22013KT 10SM CLR M02/M16 A3025 RMK AO2 SLP244 T10171161 400061083
KBOS 220354Z 22012KT 10SM CLR M01/M16 A3028 RMK AO2 SLP252 T10111161
KBOS 220254Z 23011KT 10SM CLR M01/M17 A3031 RMK AO2 SLP261 T10061167 57015
KBOS 220154Z 23010KT 10SM CLR M01/M18 A3032 RMK AO2 SLP266 T10061178
KBOS 220054Z 22008KT 10SM CLR 00/M18 A3033 RMK AO2 SLP271 T00001183
KBOS 212354Z 20007KT 10SM CLR M01/M18 A3035 RMK AO2 SLP276 T10061178 10006 21028 56007
KBOS 212254Z 21009KT 10SM CLR 00/M20 A3035 RMK AO2 SLP277 T00001200
KBOS 212154Z 22008KT 10SM CLR 01/M20 A3036 RMK AO2 SLP279 T00061200
KBOS 212054Z 13006KT 10SM FEW045 M01/M13 A3037 RMK AO2 SLP284 T10111133 56019
KBOS 211954Z 13008KT 10SM FEW045 M02/M13 A3039 RMK AO2 SLP290 T10171133
KBOS 211854Z VRB05KT 10SM FEW045 M02/M13 A3041 RMK AO2 SLP296 T10221133
KBOS 211754Z 12008KT 10SM FEW045 M02/M13 A3043 RMK AO2 SLP303 T10221128 11022 21078 58020
KBOS 211654Z 07006KT 10SM FEW045 M03/M16 A3047 RMK AO2 SLP317 T10281156
KBOS 211554Z VRB04KT 10SM FEW045 M02/M15 A3048 RMK AO2 SLP320 T10221150
KBOS 211454Z 34006KT 10SM FEW060 M04/M16 A3049 RMK AO2 SLP323 T10391161 50010
KBOS 211354Z 31010KT 10SM FEW060 M06/M19 A3049 RMK AO2 SLP324 T10561194
KBOS 211254Z 33009KT 10SM FEW060 M07/M20 A3048 RMK AO2 SLP320 T10721200
KBOS 211154Z 33009KT 10SM FEW060 M08/M19 A3046 RMK AO2 SLP313 T10781194 11056 21083 53005
KBOS 211054Z 36009KT 10SM FEW060 M08/M19 A3045 RMK AO2 SLP310 T10831194
KBOS 210954Z 33010G19KT 10SM CLR M07/M19 A3044 RMK AO2 SLP308 T10721194
KBOS 210854Z 32011KT 10SM CLR M07/M19 A3044 RMK AO2 SLP308 T10671194 50001
KBOS 210754Z 33010G18KT 10SM CLR M07/M19 A3045 RMK AO2 SLP311 T10671189
KBOS 210654Z 32009KT 10SM CLR M06/M17 A3045 RMK AO2 SLP309 T10611172
KBOS 210554Z 34010KT 10SM FEW070 M06/M17 A3044 RMK AO2 SLP307 T10561172 10000 21056 53008
KBOS 210454Z 36015KT 10SM CLR M04/M17 A3043 RMK AO2 SLP304 T10441167 400281044
KBOS 210354Z 01011KT 10SM FEW070 M03/M14 A3042 RMK AO2 SLP302 T10331144
KBOS 210254Z 32014G19KT 10SM FEW070 M02/M14 A3042 RMK AO2 SLP299 T10171144 51010
KBOS 210154Z 29012KT 10SM FEW070 M01/M15 A3041 RMK AO2 SLP297 T10111150